createdAt,value
2019-04-11T00:03:44.616Z,55.75
2019-04-11T00:08:47.104Z,55.92
2019-04-11T00:13:49.519Z,55.91
2019-04-11T00:18:51.791Z,55.71
2019-04-11T00:23:54.529Z,56.23
2019-04-11T00:28:56.894Z,56.25
2019-04-11T00:33:58.912Z,55.84
2019-04-11T00:39:01.385Z,56.00
2019-04-11T00:44:03.859Z,56.17
2019-04-11T00:49:06.247Z,56.20
2019-04-11T00:54:08.777Z,56.21
2019-04-11T00:59:10.951Z,56.63
2019-04-11T01:04:13.713Z,56.34
2019-04-11T01:09:15.915Z,56.34
2019-04-11T01:14:17.889Z,57.18
2019-04-11T01:19:19.925Z,56.82
2019-04-11T01:24:22.144Z,57.17
2019-04-11T01:29:25.191Z,57.20
2019-04-11T01:34:28.706Z,57.05
2019-04-11T01:39:57.204Z,57.72
2019-04-11T01:44:59.473Z,57.46
2019-04-11T01:50:02.993Z,57.94
2019-04-11T01:55:05.485Z,57.83
2019-04-11T02:00:10.855Z,57.86
2019-04-11T02:05:25.079Z,58.01
2019-04-11T02:10:28.617Z,57.60
2019-04-11T02:15:30.891Z,57.96
2019-04-11T02:20:33.409Z,57.21
2019-04-11T02:25:51.045Z,58.15
2019-04-11T02:30:55.799Z,57.64
2019-04-11T02:35:58.249Z,57.97
2019-04-11T02:41:01.157Z,58.10
2019-04-11T02:46:11.706Z,58.17
2019-04-11T02:51:07.646Z,58.34
2019-04-11T02:56:11.705Z,58.84
2019-04-11T03:01:15.469Z,58.25
2019-04-11T03:06:19.358Z,58.04
2019-04-11T03:11:23.655Z,58.76
2019-04-11T03:16:39.351Z,59.08
2019-04-11T03:21:33.217Z,58.65
2019-04-11T03:26:35.509Z,58.73
2019-04-11T03:42:07.409Z,59.53
2019-04-11T03:47:08.402Z,59.87
2019-04-11T03:51:55.275Z,60.49
2019-04-11T03:56:59.172Z,59.47
2019-04-11T04:02:03.131Z,59.83
2019-04-11T04:07:06.905Z,59.83
2019-04-11T04:12:11.459Z,59.87
2019-04-11T04:17:25.500Z,60.14
2019-04-11T04:22:35.454Z,59.90
2019-04-11T04:27:38.773Z,59.82
2019-04-11T04:32:42.863Z,60.69
2019-04-11T04:37:47.079Z,60.88
2019-04-11T04:42:53.313Z,61.10
2019-04-11T04:48:00.470Z,60.31
2019-04-11T04:52:58.635Z,61.43
2019-04-11T04:58:02.204Z,61.11
2019-04-11T05:03:05.521Z,61.21
2019-04-11T05:08:08.320Z,61.80
2019-04-11T05:13:12.974Z,60.89
2019-04-11T05:18:17.454Z,61.03
2019-04-11T05:23:19.200Z,60.14
2019-04-11T05:28:21.486Z,60.28
2019-04-11T05:33:23.666Z,59.64
2019-04-11T05:38:25.704Z,59.78
2019-04-11T05:43:31.467Z,59.53
2019-04-11T05:49:00.427Z,59.26
2019-04-11T05:54:06.267Z,59.56
2019-04-11T05:59:18.912Z,60.31
2019-04-11T06:04:30.443Z,59.33
2019-04-11T06:09:36.022Z,59.75
2019-04-11T06:14:44.634Z,58.71
2019-04-11T06:20:06.483Z,58.93
2019-04-11T06:25:46.321Z,58.97
2019-04-11T06:31:06.060Z,57.85
2019-04-11T06:36:26.627Z,57.58
2019-04-11T06:41:43.024Z,56.37
2019-04-11T06:47:08.275Z,56.94
2019-04-11T06:52:10.775Z,56.74
2019-04-11T06:57:16.627Z,55.92
2019-04-11T07:02:21.367Z,55.96
2019-04-11T07:07:27.024Z,55.62
2019-04-11T07:12:40.770Z,55.83
2019-04-11T07:18:21.001Z,55.22
2019-04-11T07:23:44.004Z,53.53
2019-04-11T07:29:04.515Z,52.58
2019-04-11T07:34:37.469Z,51.35
2019-04-11T07:39:58.580Z,52.18
2019-04-11T07:45:04.158Z,51.14
2019-04-11T07:50:07.905Z,49.93
2019-04-11T07:55:11.851Z,48.19
2019-04-11T08:00:38.638Z,45.57
2019-04-11T08:05:53.030Z,44.70
2019-04-11T08:11:06.715Z,44.14
2019-04-11T08:16:28.977Z,44.60
2019-04-11T08:21:50.417Z,43.29
2019-04-11T08:27:17.726Z,42.39
2019-04-11T08:32:38.153Z,43.01
2019-04-11T08:38:09.915Z,42.81
2019-04-11T08:43:17.071Z,41.61
2019-04-11T08:48:19.258Z,41.17
2019-04-11T08:53:40.662Z,40.43
2019-04-11T08:59:22.802Z,39.82
2019-04-11T09:04:50.370Z,38.58
2019-04-11T09:10:13.790Z,39.24
2019-04-11T09:15:35.157Z,38.96
2019-04-11T09:20:50.217Z,38.71
2019-04-11T09:26:30.284Z,38.29
2019-04-11T09:31:50.111Z,38.18
2019-04-11T09:37:18.818Z,37.81
2019-04-11T09:42:41.081Z,37.35
2019-04-11T09:48:08.367Z,36.47
2019-04-11T09:53:05.780Z,37.52
2019-04-11T09:58:23.198Z,37.12
2019-04-11T10:03:28.721Z,37.34
2019-04-11T10:08:37.343Z,36.63
2019-04-11T10:13:59.544Z,37.14
